Time;durP1;ratioP1;P1;durP2;ratioP2;P2;SDS_P1;SDS_P2;PMS_P1;PMS_P2;Temp;Humidity;BMP_temperature;BMP_pressure;BME280_temperature;BME280_humidity;BME280_pressure;Samples;Min_cycle;Max_cycle;Signal;HPM_P1;HPM_P2
2021/12/19 00:02:11;;;;;;;9.95;4.90;;;7.70;99.90;;;;;;4837116;29;20088;-85
2021/12/19 00:08:27;;;;;;;8.45;5.80;;;7.70;99.90;;;;;;4856504;29;20372;-85
2021/12/19 00:10:07;;;;;;;8.00;5.57;;;7.70;99.90;;;;;;4817254;29;20092;-84
2021/12/19 00:12:32;;;;;;;9.48;6.03;;;7.70;99.90;;;;;;4831372;29;20050;-84
2021/12/19 00:14:59;;;;;;;10.23;5.72;;;7.70;99.90;;;;;;4840465;29;20400;-84
2021/12/19 00:17:25;;;;;;;8.45;5.70;;;7.70;99.90;;;;;;4818931;29;20045;-84
2021/12/19 00:19:50;;;;;;;8.93;6.00;;;7.70;99.90;;;;;;4842583;29;20086;-84
2021/12/19 00:22:16;;;;;;;11.95;6.10;;;7.70;99.90;;;;;;4833231;29;20205;-84
2021/12/19 00:24:42;;;;;;;12.10;6.00;;;7.70;99.90;;;;;;4802698;29;20057;-84
2021/12/19 00:27:08;;;;;;;8.55;4.93;;;7.70;99.90;;;;;;4819642;29;20500;-85
2021/12/19 00:29:33;;;;;;;8.60;5.82;;;7.70;99.90;;;;;;4839940;29;20132;-80
2021/12/19 00:31:59;;;;;;;8.20;3.72;;;7.70;99.90;;;;;;4826427;29;20129;-81
2021/12/19 00:34:25;;;;;;;9.20;4.20;;;7.70;99.90;;;;;;4842800;29;20391;-80
2021/12/19 00:36:51;;;;;;;5.10;3.13;;;7.70;99.90;;;;;;4828932;29;20107;-80
2021/12/19 00:39:17;;;;;;;7.47;3.78;;;7.70;99.90;;;;;;4821837;29;20073;-80
2021/12/19 00:41:42;;;;;;;8.75;2.55;;;7.60;99.90;;;;;;4813788;29;20042;-80
2021/12/19 00:44:10;;;;;;;4.10;1.80;;;7.60;99.90;;;;;;4836413;29;20827;-80
2021/12/19 00:46:46;;;;;;;2.85;1.33;;;7.60;99.90;;;;;;4826997;29;20148;-81
2021/12/19 00:49:12;;;;;;;2.25;1.10;;;7.50;99.90;;;;;;4818597;29;20050;-81
2021/12/19 00:51:38;;;;;;;1.83;0.90;;;7.60;99.90;;;;;;4826937;29;20046;-81
2021/12/19 00:54:09;;;;;;;1.67;0.80;;;7.50;99.90;;;;;;4827408;29;20099;-81
2021/12/19 00:56:36;;;;;;;1.92;0.90;;;7.50;99.90;;;;;;4826286;29;20041;-81
2021/12/19 00:59:02;;;;;;;3.25;1.83;;;7.40;99.90;;;;;;4821999;29;20054;-81
2021/12/19 01:01:27;;;;;;;3.63;2.05;;;7.40;99.90;;;;;;4828917;29;20073;-81
2021/12/19 01:03:53;;;;;;;3.70;1.90;;;7.40;99.90;;;;;;4831895;29;20058;-81
2021/12/19 01:06:20;;;;;;;2.10;1.33;;;7.40;99.90;;;;;;4826686;29;20137;-81
2021/12/19 01:08:47;;;;;;;2.85;1.85;;;7.40;99.90;;;;;;4800477;29;20510;-81
2021/12/19 01:11:13;;;;;;;3.35;1.50;;;7.40;99.90;;;;;;4842236;29;20053;-81
2021/12/19 01:13:39;;;;;;;1.63;0.70;;;7.30;99.90;;;;;;4825177;29;20042;-81
2021/12/19 01:16:05;;;;;;;2.03;1.00;;;7.20;99.90;;;;;;4828816;29;20084;-81
2021/12/19 01:18:31;;;;;;;1.00;0.57;;;7.20;99.90;;;;;;4829883;29;20116;-81
2021/12/19 01:20:57;;;;;;;0.90;0.40;;;7.30;99.90;;;;;;4811608;29;20128;-81
2021/12/19 01:23:23;;;;;;;2.17;0.70;;;7.10;99.90;;;;;;4843705;29;20509;-81
2021/12/19 01:25:50;;;;;;;2.15;0.60;;;7.20;99.90;;;;;;4858096;29;20045;-81
2021/12/19 01:28:16;;;;;;;1.50;0.80;;;7.20;99.90;;;;;;4841879;29;20045;-81
2021/12/19 01:30:42;;;;;;;2.58;0.80;;;7.20;99.90;;;;;;4811422;29;20050;-81
2021/12/19 01:33:08;;;;;;;1.52;0.70;;;7.20;99.90;;;;;;4841505;29;20049;-81
2021/12/19 01:35:34;;;;;;;1.15;0.50;;;7.10;99.90;;;;;;4841444;29;20080;-82
2021/12/19 01:38:00;;;;;;;4.15;0.70;;;7.20;99.90;;;;;;4799068;29;20117;-83
2021/12/19 01:40:26;;;;;;;1.58;0.90;;;7.20;99.90;;;;;;4857444;29;20068;-83
2021/12/19 01:42:55;;;;;;;1.73;0.95;;;7.20;99.90;;;;;;4823995;29;20081;-85
2021/12/19 01:45:23;;;;;;;2.55;1.23;;;7.20;99.90;;;;;;4809197;29;20042;-85
2021/12/19 01:47:49;;;;;;;2.55;1.08;;;7.20;99.90;;;;;;4817547;29;20053;-84
2021/12/19 01:50:15;;;;;;;2.67;1.40;;;7.20;99.90;;;;;;4824929;29;20088;-85
2021/12/19 01:52:40;;;;;;;2.95;1.45;;;7.20;99.90;;;;;;4811400;29;20069;-85
2021/12/19 01:55:06;;;;;;;2.08;1.50;;;7.20;99.90;;;;;;4824248;29;20116;-84
2021/12/19 01:57:34;;;;;;;4.00;1.70;;;7.20;99.90;;;;;;4841651;29;20048;-84
2021/12/19 02:00:00;;;;;;;4.93;1.60;;;7.20;99.90;;;;;;4809913;29;20048;-83
2021/12/19 02:02:26;;;;;;;2.15;1.17;;;7.20;99.90;;;;;;4780688;29;20073;-83
2021/12/19 02:04:52;;;;;;;3.65;1.10;;;7.10;99.90;;;;;;4854281;29;20050;-84
2021/12/19 02:07:18;;;;;;;2.08;0.88;;;7.10;99.90;;;;;;4826378;29;20411;-85
2021/12/19 02:09:44;;;;;;;2.30;0.77;;;7.10;99.90;;;;;;4833623;29;20052;-85
2021/12/19 02:12:12;;;;;;;1.83;0.80;;;7.10;99.90;;;;;;4857206;29;20094;-85
2021/12/19 02:14:38;;;;;;;1.98;1.10;;;7.10;99.90;;;;;;4811867;29;20054;-85
2021/12/19 02:17:05;;;;;;;2.67;0.90;;;7.10;99.90;;;;;;4824943;29;20044;-85
2021/12/19 02:19:31;;;;;;;;;;;7.10;99.90;;;;;;4825671;29;20433;-85
2021/12/19 02:21:57;;;;;;;2.72;0.85;;;7.10;99.90;;;;;;4826914;29;19959;-85
2021/12/19 02:24:23;;;;;;;3.05;1.27;;;7.10;99.90;;;;;;4807092;29;20554;-85
2021/12/19 02:26:48;;;;;;;2.85;0.98;;;7.10;99.90;;;;;;4813396;29;20046;-85
2021/12/19 02:29:14;;;;;;;1.17;0.90;;;7.00;99.90;;;;;;4845292;29;20041;-85
2021/12/19 02:31:40;;;;;;;2.70;0.70;;;7.00;99.90;;;;;;4823629;29;20122;-84
2021/12/19 02:34:13;;;;;;;2.75;0.77;;;7.00;99.90;;;;;;4839470;29;20053;-85
2021/12/19 02:50:10;;;;;;;2.87;1.10;;;6.80;99.90;;;;;;4830328;29;20113;-84
2021/12/19 02:52:36;;;;;;;3.53;1.20;;;6.80;99.90;;;;;;4829337;29;20788;-84
2021/12/19 02:55:04;;;;;;;1.48;1.00;;;6.80;99.90;;;;;;4826708;29;20045;-84
2021/12/19 02:57:29;;;;;;;2.90;1.10;;;6.80;99.90;;;;;;4847248;29;20044;-84
2021/12/19 02:59:55;;;;;;;2.25;1.20;;;6.80;99.90;;;;;;4826526;29;20045;-84
2021/12/19 03:02:22;;;;;;;2.60;1.05;;;6.80;99.90;;;;;;4806694;29;20054;-84
2021/12/19 03:04:59;;;;;;;4.80;1.20;;;6.80;99.90;;;;;;4817189;29;20053;-84
2021/12/19 03:07:26;;;;;;;3.08;1.10;;;6.70;99.90;;;;;;4847378;29;20052;-84
2021/12/19 03:17:59;;;;;;;1.77;0.40;;;6.70;99.90;;;;;;4821814;29;20096;-85
2021/12/19 03:20:31;;;;;;;1.52;0.45;;;6.70;99.90;;;;;;4817779;29;20097;-85
2021/12/19 03:23:00;;;;;;;2.00;0.55;;;6.60;99.90;;;;;;4829616;29;20120;-84
2021/12/19 03:25:27;;;;;;;0.90;0.50;;;6.60;99.90;;;;;;4831916;29;20053;-84
2021/12/19 03:27:54;;;;;;;1.80;0.80;;;6.60;99.90;;;;;;4832225;29;20045;-84
2021/12/19 03:30:20;;;;;;;1.85;0.90;;;6.70;99.90;;;;;;4832412;29;20053;-84
2021/12/19 03:32:46;;;;;;;1.92;0.82;;;6.70;99.90;;;;;;4817535;29;20495;-83
2021/12/19 03:35:12;;;;;;;1.70;0.82;;;6.70;99.90;;;;;;4818787;29;20038;-84
2021/12/19 03:37:38;;;;;;;3.67;0.90;;;6.80;99.90;;;;;;4829624;29;20045;-84
2021/12/19 03:40:11;;;;;;;2.47;0.88;;;6.70;99.90;;;;;;4829154;29;20048;-85
2021/12/19 03:42:46;;;;;;;4.18;0.88;;;6.70;99.90;;;;;;4844719;29;20094;-85
2021/12/19 03:45:15;;;;;;;1.92;0.90;;;6.70;99.90;;;;;;4829447;29;20201;-85
2021/12/19 03:47:41;;;;;;;4.22;1.00;;;6.70;99.90;;;;;;4821509;29;20053;-85
2021/12/19 03:50:09;;;;;;;3.58;0.90;;;6.70;99.90;;;;;;4844377;29;20120;-85
2021/12/19 03:52:35;;;;;;;2.45;1.00;;;6.70;99.90;;;;;;4830751;29;20077;-85
2021/12/19 03:55:02;;;;;;;5.45;1.30;;;6.70;99.90;;;;;;4822407;29;20044;-84
2021/12/19 03:57:28;;;;;;;3.53;1.30;;;6.70;99.90;;;;;;4828458;29;20542;-84
2021/12/19 03:59:53;;;;;;;5.50;1.48;;;6.70;99.90;;;;;;4818255;29;20042;-84
2021/12/19 04:02:26;;;;;;;4.07;1.35;;;6.80;99.90;;;;;;4826787;29;20061;-85
2021/12/19 04:04:53;;;;;;;4.25;1.30;;;6.80;99.90;;;;;;4820851;29;20056;-84
2021/12/19 04:07:20;;;;;;;3.75;1.20;;;6.80;99.90;;;;;;4829651;29;20049;-84
2021/12/19 04:09:45;;;;;;;3.90;1.23;;;6.70;99.90;;;;;;4824742;29;20046;-84
2021/12/19 04:12:11;;;;;;;4.00;1.48;;;6.80;99.90;;;;;;4823139;29;20052;-84
2021/12/19 04:14:37;;;;;;;4.35;1.70;;;6.80;99.90;;;;;;4842790;29;20037;-84
2021/12/19 04:17:03;;;;;;;8.65;2.50;;;6.80;99.90;;;;;;4822519;29;20120;-84
2021/12/19 04:19:29;;;;;;;7.20;2.40;;;6.80;99.90;;;;;;4824614;29;20077;-84
2021/12/19 04:21:59;;;;;;;6.65;2.42;;;6.90;99.90;;;;;;4810859;29;20136;-84
2021/12/19 04:24:28;;;;;;;6.95;2.50;;;6.80;99.90;;;;;;4831844;29;20057;-84
2021/12/19 04:26:55;;;;;;;5.40;2.30;;;6.90;99.90;;;;;;4817350;29;20045;-84
2021/12/19 04:29:23;;;;;;;8.10;2.15;;;6.90;99.90;;;;;;4858263;29;20049;-84
2021/12/19 04:31:50;;;;;;;10.73;2.88;;;6.90;99.90;;;;;;4816624;29;20440;-84
2021/12/19 04:34:17;;;;;;;9.40;3.28;;;6.90;99.90;;;;;;4824545;29;20133;-85
2021/12/19 04:36:46;;;;;;;13.70;3.22;;;6.90;99.90;;;;;;4810569;29;20054;-86
2021/12/19 04:39:37;;;;;;;12.60;3.33;;;6.90;99.90;;;;;;4839617;29;20073;-85
2021/12/19 04:53:23;;;;;;;16.30;3.80;;;7.00;99.90;;;;;;4825114;29;20459;-85
2021/12/19 05:01:42;;;;;;;11.77;3.65;;;7.10;99.90;;;;;;4836801;29;20119;-84
2021/12/19 05:04:38;;;;;;;14.77;4.10;;;7.10;99.90;;;;;;4821220;29;20052;-84
2021/12/19 05:15:09;;;;;;;15.77;5.18;;;7.10;99.90;;;;;;4812123;29;20452;-84
2021/12/19 05:17:35;;;;;;;13.25;5.47;;;7.00;99.90;;;;;;4824011;29;20486;-84
2021/12/19 05:22:32;;;;;;;13.80;5.80;;;7.10;99.90;;;;;;4840333;29;20064;-84
2021/12/19 05:25:07;;;;;;;13.10;5.53;;;7.10;99.90;;;;;;4824076;29;20102;-83
2021/12/19 05:27:33;;;;;;;13.13;5.60;;;7.30;99.90;;;;;;4828732;29;20052;-83
2021/12/19 05:29:59;;;;;;;14.32;6.32;;;7.30;99.90;;;;;;4817143;29;20045;-83
2021/12/19 05:32:25;;;;;;;16.60;6.18;;;7.30;99.90;;;;;;4827607;29;20061;-84
2021/12/19 05:34:51;;;;;;;14.40;5.30;;;7.30;99.90;;;;;;4839279;29;20102;-84
2021/12/19 05:45:30;;;;;;;14.05;6.00;;;7.30;99.90;;;;;;4843949;29;20049;-82
2021/12/19 05:47:57;;;;;;;17.77;6.65;;;7.30;99.90;;;;;;4830568;29;20120;-83
2021/12/19 05:50:23;;;;;;;16.52;7.30;;;7.20;99.90;;;;;;4824214;29;20431;-82
2021/12/19 05:52:50;;;;;;;13.88;7.25;;;7.30;99.90;;;;;;4826807;29;20081;-84
2021/12/19 05:55:17;;;;;;;15.75;6.93;;;7.20;99.90;;;;;;4830429;29;20037;-84
2021/12/19 05:57:43;;;;;;;14.38;5.95;;;7.20;99.90;;;;;;4838786;29;20048;-84
2021/12/19 06:00:12;;;;;;;;;;;7.20;99.90;;;;;;4832053;29;20117;-84
2021/12/19 06:02:42;;;;;;;15.13;5.20;;;7.20;99.90;;;;;;4835431;29;19928;-84
2021/12/19 06:05:12;;;;;;;15.27;5.75;;;7.20;99.90;;;;;;4856835;29;20073;-82
2021/12/19 06:07:38;;;;;;;12.82;4.85;;;7.20;99.90;;;;;;4810144;29;20057;-83
2021/12/19 06:10:05;;;;;;;16.15;4.97;;;7.20;99.90;;;;;;4820411;29;20059;-84
2021/12/19 06:12:31;;;;;;;13.20;4.60;;;7.20;99.90;;;;;;4858457;29;20120;-84
2021/12/19 06:14:57;;;;;;;10.93;4.60;;;7.20;99.90;;;;;;4811404;29;20136;-85
2021/12/19 06:17:23;;;;;;;11.82;4.22;;;7.20;99.90;;;;;;4815913;29;20061;-85
2021/12/19 06:19:49;;;;;;;13.02;4.72;;;7.30;99.90;;;;;;4826654;29;20052;-85
2021/12/19 06:22:15;;;;;;;13.45;4.30;;;7.20;99.90;;;;;;4830401;29;20040;-85
2021/12/19 06:24:40;;;;;;;14.10;4.35;;;7.30;99.90;;;;;;4803652;29;20475;-84
2021/12/19 06:27:06;;;;;;;13.45;4.53;;;7.20;99.90;;;;;;4826746;29;20136;-84
2021/12/19 06:29:32;;;;;;;13.15;4.78;;;7.20;99.90;;;;;;4808273;29;20122;-85
2021/12/19 06:31:58;;;;;;;13.88;4.72;;;7.20;99.90;;;;;;4807393;29;20045;-85
2021/12/19 06:34:24;;;;;;;10.57;4.30;;;7.20;99.90;;;;;;4812269;29;20046;-85
2021/12/19 06:36:53;;;;;;;13.75;4.68;;;7.10;99.90;;;;;;4816670;29;20515;-85
2021/12/19 06:39:23;;;;;;;11.93;3.72;;;7.10;99.90;;;;;;4814407;29;20077;-85
2021/12/19 06:41:49;;;;;;;10.60;3.90;;;7.10;99.90;;;;;;4826197;29;20495;-84
2021/12/19 06:44:15;;;;;;;13.52;4.53;;;7.20;99.90;;;;;;4841603;29;20088;-85
2021/12/19 06:46:41;;;;;;;10.32;3.30;;;7.10;99.90;;;;;;4826103;29;20098;-85
2021/12/19 06:49:07;;;;;;;9.68;3.10;;;7.20;99.90;;;;;;4840790;29;20046;-85
2021/12/19 06:51:33;;;;;;;12.25;3.40;;;7.10;99.90;;;;;;4824957;29;20053;-85
2021/12/19 06:54:00;;;;;;;8.80;3.13;;;7.10;99.90;;;;;;4810440;29;20057;-85
2021/12/19 06:56:26;;;;;;;8.73;2.03;;;7.10;99.90;;;;;;4808390;29;20038;-85
2021/12/19 06:58:52;;;;;;;;;;;7.10;99.90;;;;;;4810328;29;20125;-85
2021/12/19 07:01:18;;;;;;;8.32;2.00;;;7.10;99.90;;;;;;4823553;29;20403;-82
2021/12/19 07:03:43;;;;;;;7.05;2.10;;;7.20;99.90;;;;;;4796171;29;20411;-80
2021/12/19 07:06:10;;;;;;;12.20;2.33;;;7.20;99.90;;;;;;4819331;29;20137;-80
2021/12/19 07:08:35;;;;;;;14.80;2.97;;;7.20;99.90;;;;;;4799410;29;20042;-80
2021/12/19 07:11:01;;;;;;;8.68;2.85;;;7.20;99.90;;;;;;4804499;29;20385;-80
2021/12/19 07:13:27;;;;;;;7.90;2.25;;;7.20;99.90;;;;;;4823802;29;20044;-80
2021/12/19 07:15:55;;;;;;;8.70;2.53;;;7.20;99.90;;;;;;4842376;29;20053;-80
2021/12/19 07:18:21;;;;;;;9.93;2.70;;;7.20;99.90;;;;;;4825457;29;20060;-83
2021/12/19 07:20:47;;;;;;;8.38;2.83;;;7.20;99.90;;;;;;4801543;29;20050;-84
2021/12/19 07:23:18;;;;;;;7.28;2.47;;;7.20;99.90;;;;;;4823832;29;20072;-84
2021/12/19 07:25:44;;;;;;;8.93;2.58;;;7.20;99.90;;;;;;4811282;29;20046;-84
2021/12/19 07:28:11;;;;;;;7.47;2.53;;;7.20;99.90;;;;;;4818571;29;20153;-84
2021/12/19 07:30:37;;;;;;;11.95;3.33;;;7.20;99.90;;;;;;4800737;29;20499;-84
2021/12/19 07:33:09;;;;;;;5.28;1.90;;;7.20;99.90;;;;;;4787827;29;20352;-84
2021/12/19 07:35:38;;;;;;;12.30;2.70;;;7.20;99.90;;;;;;4809479;29;20129;-84
2021/12/19 07:38:05;;;;;;;6.88;2.08;;;7.20;99.90;;;;;;4828194;29;20140;-84
2021/12/19 07:40:39;;;;;;;9.68;2.30;;;7.20;99.90;;;;;;4810069;29;20061;-85
2021/12/19 07:43:10;;;;;;;11.73;3.15;;;7.20;99.90;;;;;;4805471;29;20057;-85
2021/12/19 07:45:36;;;;;;;8.18;2.28;;;7.20;99.90;;;;;;4818360;29;20070;-85
2021/12/19 07:48:03;;;;;;;8.13;2.25;;;7.30;99.90;;;;;;4793607;29;20069;-86
2021/12/19 07:50:30;;;;;;;8.23;2.47;;;7.30;99.90;;;;;;4819293;29;20101;-82
2021/12/19 07:52:56;;;;;;;9.50;2.30;;;7.30;99.90;;;;;;4805680;29;20129;-86
2021/12/19 07:55:23;;;;;;;8.02;2.28;;;7.30;99.90;;;;;;4810252;29;20048;-85
2021/12/19 07:57:49;;;;;;;6.40;2.10;;;7.30;99.90;;;;;;4809941;29;20068;-84
2021/12/19 08:00:15;;;;;;;10.23;2.38;;;7.30;99.90;;;;;;4808463;29;20430;-84
2021/12/19 08:02:42;;;;;;;7.50;2.55;;;7.30;99.90;;;;;;4836685;29;20423;-85
2021/12/19 08:05:09;;;;;;;6.80;2.40;;;7.30;99.90;;;;;;4795259;29;20061;-85
2021/12/19 08:07:35;;;;;;;10.00;2.72;;;7.30;99.90;;;;;;4810576;29;20081;-85
2021/12/19 08:10:14;;;;;;;9.02;2.65;;;7.40;99.90;;;;;;4810593;29;20045;-84
2021/12/19 08:12:40;;;;;;;12.90;2.80;;;7.30;99.90;;;;;;4810155;29;20526;-84
2021/12/19 08:15:08;;;;;;;10.50;2.75;;;7.30;99.90;;;;;;4810817;29;20038;-85
2021/12/19 08:17:34;;;;;;;12.25;2.65;;;7.30;99.90;;;;;;4810077;29;20075;-86
2021/12/19 08:20:01;;;;;;;11.68;2.70;;;7.30;99.90;;;;;;4825363;29;20052;-87
2021/12/19 08:22:28;;;;;;;8.95;2.65;;;7.30;99.90;;;;;;4822393;29;20109;-84
2021/12/19 08:24:56;;;;;;;10.00;2.65;;;7.20;99.90;;;;;;4823235;29;20506;-86
2021/12/19 08:27:22;;;;;;;9.25;2.28;;;7.30;99.90;;;;;;4808818;29;20077;-86
2021/12/19 08:29:48;;;;;;;12.95;2.90;;;7.20;99.90;;;;;;4812843;29;20104;-86
2021/12/19 08:32:14;;;;;;;9.50;2.50;;;7.30;99.90;;;;;;4805018;29;20056;-87
2021/12/19 08:34:40;;;;;;;11.23;2.53;;;7.30;99.90;;;;;;4821994;29;20045;-86
2021/12/19 08:37:06;;;;;;;10.77;2.28;;;7.30;99.90;;;;;;4830651;29;20050;-85
2021/12/19 08:39:33;;;;;;;10.10;2.90;;;7.30;99.90;;;;;;4827127;29;20046;-83
2021/12/19 08:42:00;;;;;;;12.18;2.60;;;7.30;99.90;;;;;;4850063;29;20116;-84
2021/12/19 08:44:25;;;;;;;10.63;2.50;;;7.30;99.90;;;;;;4811256;29;20049;-84
2021/12/19 08:46:51;;;;;;;10.70;2.97;;;7.20;99.90;;;;;;4858816;29;20113;-85
2021/12/19 08:49:17;;;;;;;9.35;2.60;;;7.30;99.90;;;;;;4832614;29;20042;-83
2021/12/19 08:51:43;;;;;;;7.70;2.63;;;7.30;99.90;;;;;;4825833;29;20053;-83
2021/12/19 08:54:08;;;;;;;9.95;2.65;;;7.40;99.90;;;;;;4828458;29;20196;-83
2021/12/19 08:56:35;;;;;;;14.05;2.70;;;7.30;99.90;;;;;;4844515;29;20097;-83
2021/12/19 08:59:02;;;;;;;11.75;2.95;;;7.40;99.90;;;;;;4825532;29;20033;-83
2021/12/19 09:01:28;;;;;;;15.07;2.80;;;7.40;99.90;;;;;;4843568;29;20062;-83
2021/12/19 09:03:54;;;;;;;11.52;2.78;;;7.40;99.90;;;;;;4822540;29;20047;-83
2021/12/19 09:06:20;;;;;;;13.90;2.70;;;7.40;99.90;;;;;;4802431;29;20046;-84
2021/12/19 09:08:46;;;;;;;9.32;2.55;;;7.50;99.90;;;;;;4826353;29;20038;-83
2021/12/19 09:11:12;;;;;;;8.57;2.35;;;7.40;99.90;;;;;;4839331;29;20038;-83
2021/12/19 09:13:38;;;;;;;9.90;2.40;;;7.50;99.90;;;;;;4792416;29;20058;-83
2021/12/19 09:16:04;;;;;;;10.90;2.60;;;7.40;99.90;;;;;;4824385;29;20042;-83
2021/12/19 09:18:29;;;;;;;12.35;2.67;;;7.40;99.90;;;;;;4813667;29;20042;-83
2021/12/19 09:20:56;;;;;;;10.13;2.30;;;7.40;99.90;;;;;;4825618;29;20470;-83
2021/12/19 09:23:22;;;;;;;9.77;1.90;;;7.40;99.90;;;;;;4810086;29;20088;-84
2021/12/19 09:25:48;;;;;;;8.88;2.08;;;7.40;99.90;;;;;;4826022;29;20060;-85
2021/12/19 09:28:14;;;;;;;5.25;1.70;;;7.40;99.90;;;;;;4810713;29;20430;-84
2021/12/19 09:30:41;;;;;;;;;;;7.40;99.90;;;;;;4827326;29;20046;-85
2021/12/19 09:33:06;;;;;;;13.02;2.20;;;7.40;99.90;;;;;;4826666;29;20370;-84
2021/12/19 09:35:34;;;;;;;9.75;2.25;;;7.40;99.90;;;;;;4825315;29;20074;-84
2021/12/19 09:38:00;;;;;;;10.38;2.00;;;7.40;99.90;;;;;;4828753;29;20049;-83
2021/12/19 09:40:33;;;;;;;10.85;2.10;;;7.40;99.90;;;;;;4836024;29;20049;-83
2021/12/19 09:43:02;;;;;;;11.35;2.40;;;7.40;99.90;;;;;;4807339;29;20435;-83
2021/12/19 09:45:29;;;;;;;12.13;2.30;;;7.50;99.90;;;;;;4823098;29;20058;-83
2021/12/19 09:47:55;;;;;;;9.30;2.17;;;7.50;99.90;;;;;;4823616;29;20452;-84
2021/12/19 09:50:21;;;;;;;7.38;1.98;;;7.50;99.90;;;;;;4820682;29;20472;-85
2021/12/19 09:52:47;;;;;;;8.88;1.95;;;7.50;99.90;;;;;;4805839;29;20488;-85
2021/12/19 09:55:17;;;;;;;8.38;2.22;;;7.50;99.90;;;;;;4821397;29;20048;-84
2021/12/19 09:57:43;;;;;;;8.73;2.17;;;7.50;99.90;;;;;;4821602;29;20050;-84
2021/12/19 10:00:09;;;;;;;14.75;2.58;;;7.60;99.90;;;;;;4822685;29;20102;-84
2021/12/19 10:02:35;;;;;;;;;;;7.60;99.90;;;;;;4820430;29;20057;-85
2021/12/19 10:05:21;;;;;;;10.07;2.38;;;7.60;99.90;;;;;;4842319;29;20085;-88
2021/12/19 10:07:50;;;;;;;7.93;2.25;;;7.60;99.90;;;;;;4825174;29;20054;-87
2021/12/19 10:10:25;;;;;;;12.00;2.55;;;7.60;99.90;;;;;;4810151;29;20057;-86
2021/12/19 10:12:58;;;;;;;13.45;2.58;;;7.60;99.90;;;;;;4849294;29;20046;-86
2021/12/19 10:15:29;;;;;;;12.30;2.20;;;7.60;99.90;;;;;;4827763;29;20408;-87
2021/12/19 10:18:05;;;;;;;11.45;2.05;;;7.60;99.90;;;;;;4828088;29;20037;-87
2021/12/19 10:20:47;;;;;;;13.80;2.50;;;7.60;99.90;;;;;;4827918;29;20037;-86
2021/12/19 10:23:22;;;;;;;8.45;1.83;;;7.60;99.90;;;;;;4827924;29;20056;-88
2021/12/19 10:26:01;;;;;;;12.20;2.53;;;7.60;99.90;;;;;;4843613;29;20132;-88
2021/12/19 10:28:28;;;;;;;14.48;2.55;;;7.60;99.90;;;;;;4810031;29;20057;-86
2021/12/19 10:30:57;;;;;;;10.98;2.20;;;7.60;99.90;;;;;;4821744;29;20049;-86
2021/12/19 10:33:27;;;;;;;8.65;2.03;;;7.60;99.90;;;;;;4842929;29;20053;-84
2021/12/19 10:35:58;;;;;;;6.28;1.77;;;7.70;99.90;;;;;;4842862;29;20048;-85
2021/12/19 10:38:40;;;;;;;7.63;1.85;;;7.70;99.90;;;;;;4828123;29;20054;-76
2021/12/19 10:41:23;;;;;;;7.53;1.80;;;7.70;99.90;;;;;;4827900;29;20045;-83
2021/12/19 10:44:01;;;;;;;11.82;2.28;;;7.70;99.90;;;;;;4829408;29;20045;-80
2021/12/19 10:46:29;;;;;;;14.18;2.30;;;7.80;99.90;;;;;;4843076;29;20065;-81
2021/12/19 10:48:55;;;;;;;10.13;2.10;;;7.80;99.90;;;;;;4831330;29;20049;-82
2021/12/19 10:51:21;;;;;;;8.65;2.10;;;7.90;99.90;;;;;;4831510;29;20045;-81
2021/12/19 10:53:55;;;;;;;6.85;1.73;;;7.90;99.90;;;;;;4831533;29;20061;-82
2021/12/19 10:56:25;;;;;;;14.95;3.13;;;7.90;99.90;;;;;;4825280;29;20049;-82
2021/12/19 10:59:00;;;;;;;14.45;2.53;;;7.90;99.90;;;;;;4827934;29;20130;-82
2021/12/19 11:01:34;;;;;;;13.98;2.95;;;7.90;99.90;;;;;;4843647;29;20104;-83
2021/12/19 11:04:06;;;;;;;12.73;2.53;;;7.90;99.90;;;;;;4844171;29;20373;-82
2021/12/19 11:06:34;;;;;;;9.40;2.00;;;7.90;99.90;;;;;;4824863;29;20480;-80
2021/12/19 11:09:08;;;;;;;18.50;2.67;;;7.90;99.90;;;;;;4861507;29;20101;-82
2021/12/19 11:11:55;;;;;;;12.35;2.17;;;7.90;99.90;;;;;;4856417;29;20050;-82
2021/12/19 11:14:25;;;;;;;11.82;2.63;;;7.90;99.90;;;;;;4846043;29;20097;-83
2021/12/19 11:17:00;;;;;;;15.70;2.58;;;8.00;99.90;;;;;;4861479;29;20038;-82
2021/12/19 11:19:27;;;;;;;14.32;3.15;;;8.00;99.90;;;;;;4845924;29;20072;-82
2021/12/19 11:21:53;;;;;;;14.07;3.85;;;8.00;99.90;;;;;;4844952;29;20049;-84
2021/12/19 11:24:22;;;;;;;13.18;2.63;;;8.00;99.90;;;;;;4830906;29;20551;-83
2021/12/19 11:26:51;;;;;;;12.73;2.65;;;8.00;99.90;;;;;;4830476;29;20527;-83
2021/12/19 11:29:17;;;;;;;11.85;3.80;;;8.10;99.90;;;;;;4846019;29;20053;-85
2021/12/19 11:31:46;;;;;;;12.57;2.75;;;8.10;99.90;;;;;;4837453;29;20041;-80
2021/12/19 11:34:31;;;;;;;14.75;2.65;;;8.10;99.90;;;;;;4838220;29;20041;-79
2021/12/19 11:37:13;;;;;;;12.35;2.65;;;8.10;99.90;;;;;;4819957;29;20054;-79
2021/12/19 11:39:49;;;;;;;16.15;3.63;;;8.10;99.90;;;;;;4824599;29;20049;-80
2021/12/19 11:42:27;;;;;;;13.00;2.42;;;8.10;99.90;;;;;;4812844;29;20042;-81
2021/12/19 11:47:37;;;;;;;13.88;3.25;;;8.20;99.90;;;;;;4845457;29;20151;-83
2021/12/19 11:50:25;;;;;;;21.55;4.15;;;8.20;99.90;;;;;;4826920;29;20050;-81
2021/12/19 11:52:54;;;;;;;19.85;3.88;;;8.20;99.90;;;;;;4812224;29;20846;-80
2021/12/19 11:55:22;;;;;;;16.13;4.13;;;8.30;99.90;;;;;;4835834;29;20037;-80
2021/12/19 11:58:07;;;;;;;15.45;3.45;;;8.30;99.90;;;;;;4829122;29;20136;-81
2021/12/19 12:00:48;;;;;;;14.80;4.18;;;8.30;99.90;;;;;;4844937;29;20049;-81
2021/12/19 12:03:14;;;;;;;16.05;3.63;;;8.30;99.90;;;;;;4844755;29;20053;-82
2021/12/19 12:05:48;;;;;;;13.45;2.47;;;8.30;99.90;;;;;;4829666;29;20464;-81
2021/12/19 12:08:15;;;;;;;17.38;3.38;;;8.30;99.90;;;;;;4842257;29;20042;-81
2021/12/19 12:10:57;;;;;;;14.85;3.47;;;8.30;99.90;;;;;;4842669;29;20077;-82
2021/12/19 12:13:24;;;;;;;13.90;3.20;;;8.30;99.90;;;;;;4839733;29;20057;-81
2021/12/19 12:15:52;;;;;;;12.20;3.00;;;8.30;99.90;;;;;;4829516;29;20053;-82
2021/12/19 12:18:29;;;;;;;18.05;3.22;;;8.30;99.90;;;;;;4815233;29;20045;-81
2021/12/19 12:20:55;;;;;;;10.93;2.78;;;8.30;99.90;;;;;;4826723;29;20049;-81
2021/12/19 12:23:28;;;;;;;22.58;3.33;;;8.40;99.90;;;;;;4814703;29;20385;-80
2021/12/19 12:25:54;;;;;;;16.10;2.90;;;8.40;99.90;;;;;;4832446;29;20118;-80
2021/12/19 12:28:20;;;;;;;13.05;3.00;;;8.40;99.90;;;;;;4829649;29;20140;-81
2021/12/19 12:30:52;;;;;;;13.05;3.08;;;8.40;99.90;;;;;;4846134;29;20527;-80
2021/12/19 12:33:20;;;;;;;15.25;3.33;;;8.40;99.90;;;;;;4825361;29;20055;-81
2021/12/19 12:35:50;;;;;;;16.08;2.80;;;8.40;99.90;;;;;;4829109;29;20037;-81
2021/12/19 12:38:17;;;;;;;13.02;2.63;;;8.40;99.90;;;;;;4829287;29;20084;-81
2021/12/19 12:43:27;;;;;;;15.73;2.67;;;8.40;99.90;;;;;;4835873;29;20124;-82
2021/12/19 12:46:08;;;;;;;12.10;2.40;;;8.30;99.90;;;;;;4844326;29;20081;-80
2021/12/19 12:48:41;;;;;;;11.93;2.20;;;8.30;99.90;;;;;;4844735;29;20045;-81
2021/12/19 12:51:11;;;;;;;14.60;2.33;;;8.30;99.90;;;;;;4829680;29;20506;-81
2021/12/19 12:53:48;;;;;;;13.40;2.53;;;8.20;99.90;;;;;;4844673;29;20149;-81
2021/12/19 12:56:19;;;;;;;10.75;2.50;;;8.20;99.90;;;;;;4842838;29;20399;-82
2021/12/19 12:58:51;;;;;;;19.27;4.53;;;8.20;99.90;;;;;;4845982;29;20042;-82
2021/12/19 13:01:21;;;;;;;14.73;3.00;;;8.20;99.90;;;;;;4846077;29;20073;-82
2021/12/19 13:04:01;;;;;;;12.13;2.75;;;8.20;99.90;;;;;;4847514;29;20059;-82
2021/12/19 13:06:48;;;;;;;15.23;2.70;;;8.20;99.90;;;;;;4852490;29;20089;-82
2021/12/19 13:09:29;;;;;;;16.50;2.97;;;8.20;99.90;;;;;;4829556;29;20483;-82
2021/12/19 13:12:20;;;;;;;14.85;2.80;;;8.20;99.90;;;;;;4835298;29;20042;-81
2021/12/19 13:14:49;;;;;;;13.90;2.22;;;8.20;99.90;;;;;;4828036;29;20468;-82
2021/12/19 13:17:31;;;;;;;15.05;2.40;;;8.20;99.90;;;;;;4842694;29;20037;-81
2021/12/19 13:19:59;;;;;;;9.45;2.10;;;8.20;99.90;;;;;;4840297;29;20050;-82
2021/12/19 13:22:27;;;;;;;15.02;2.50;;;8.20;99.90;;;;;;4825884;29;20041;-82
2021/12/19 13:24:55;;;;;;;12.02;2.80;;;8.20;99.90;;;;;;4829001;29;20176;-82
2021/12/19 13:27:32;;;;;;;14.27;2.17;;;8.20;99.90;;;;;;4829197;29;20158;-81
2021/12/19 13:30:11;;;;;;;13.07;3.05;;;8.30;99.90;;;;;;4843721;29;20057;-81
2021/12/19 13:33:03;;;;;;;13.00;2.38;;;8.30;99.90;;;;;;4858386;29;20534;-82
2021/12/19 13:35:46;;;;;;;17.05;4.75;;;8.30;99.90;;;;;;4807697;29;20065;-82
2021/12/19 13:38:13;;;;;;;16.13;3.63;;;8.30;99.90;;;;;;4825557;29;20081;-81
2021/12/19 13:40:45;;;;;;;21.05;5.32;;;8.30;99.90;;;;;;4825759;29;20153;-82
2021/12/19 13:43:35;;;;;;;17.70;5.65;;;8.30;99.90;;;;;;4810612;29;20050;-82
2021/12/19 13:46:05;;;;;;;16.60;3.08;;;8.30;99.90;;;;;;4825678;29;20054;-81
2021/12/19 13:48:47;;;;;;;15.85;2.38;;;8.40;99.90;;;;;;4831091;29;20123;-82
2021/12/19 13:51:15;;;;;;;12.90;2.40;;;8.40;99.90;;;;;;4843971;29;20041;-82
2021/12/19 13:53:47;;;;;;;15.45;3.03;;;8.40;99.90;;;;;;4828788;29;20041;-82
2021/12/19 13:56:19;;;;;;;11.02;2.50;;;8.40;99.90;;;;;;4824107;29;20041;-81
2021/12/19 13:58:51;;;;;;;17.38;2.97;;;8.30;99.90;;;;;;4806294;29;20415;-81
2021/12/19 14:01:18;;;;;;;15.55;3.10;;;8.30;99.90;;;;;;4840476;29;20050;-80
2021/12/19 14:03:49;;;;;;;10.52;2.60;;;8.30;99.90;;;;;;4832667;29;20068;-80
2021/12/19 14:06:25;;;;;;;14.02;2.65;;;8.30;99.90;;;;;;4857023;29;20128;-80
2021/12/19 14:08:54;;;;;;;15.20;1.98;;;8.20;99.90;;;;;;4836234;29;20450;-80